Fort Leonard Wood, Missouri
Current Conditions -  °F | °C
As of 4:18 PM on Monday 22 Dec 2014 (Local Time) from KTBN Reporting Station
Overcast Overcast  
Wind Chill: 45°   Ceiling: 700
Heat Index: 48°   Visibility: 10mi
Dew Point: 48°   Wind: 7mph
Humidity: 100%   Direction: 170°S
Pressure: 29.49"   Gusts: NA
Location:  37.77°N, 92.12°W
Report Text: KTBN 222218Z AUTO 17006KT 10SM OVC007 09/09 A2949 RMK AO2
Loading
Personal Weather Stations






























Interactive Weather Map New forecast layout! Learn more

10-Day Weather Forecast

Advertisements
Track Severe Weather on mobile